createdAt,value
2023-02-14T00:01:29.359Z,16.43
2023-02-14T00:04:00.773Z,17.20
2023-02-14T00:06:35.516Z,18.23
2023-02-14T00:09:05.758Z,19.67
2023-02-14T00:11:36.112Z,18.30
2023-02-14T00:14:19.194Z,19.20
2023-02-14T00:16:49.181Z,18.17
2023-02-14T00:19:21.160Z,19.47
2023-02-14T00:21:54.255Z,18.17
2023-02-14T00:24:27.282Z,19.03
2023-02-14T00:26:57.509Z,18.00
2023-02-14T00:29:28.879Z,19.10
2023-02-14T00:31:59.164Z,18.70
2023-02-14T00:34:29.837Z,18.27
2023-02-14T00:40:25.576Z,17.40
2023-02-14T00:42:55.609Z,19.73
2023-02-14T00:45:26.118Z,19.17
2023-02-14T00:47:56.111Z,19.00
2023-02-14T00:50:26.045Z,21.27
2023-02-14T00:52:58.587Z,19.40
2023-02-14T00:55:28.609Z,21.27
2023-02-14T00:57:58.526Z,20.17
2023-02-14T01:00:28.874Z,20.70
2023-02-14T01:02:59.180Z,20.43
2023-02-14T01:05:29.117Z,20.07
2023-02-14T01:08:01.770Z,22.03
2023-02-14T01:10:31.752Z,21.33
2023-02-14T01:13:02.071Z,20.93
2023-02-14T01:15:32.581Z,21.10
2023-02-14T01:18:03.414Z,20.00
2023-02-14T01:20:34.366Z,20.17
2023-02-14T01:28:36.421Z,20.27
2023-02-14T01:31:12.241Z,18.13
2023-02-14T01:33:43.662Z,18.70
2023-02-14T01:36:28.180Z,18.93
2023-02-14T01:39:04.589Z,19.27
2023-02-14T01:41:37.058Z,17.57
2023-02-14T01:44:09.717Z,17.43
2023-02-14T01:46:41.041Z,16.93
2023-02-14T01:49:14.818Z,18.80
2023-02-14T01:51:50.880Z,19.00
2023-02-14T01:54:28.567Z,17.77
2023-02-14T01:57:05.358Z,17.53
2023-02-14T01:59:39.762Z,16.57
2023-02-14T02:04:45.958Z,16.60
2023-02-14T02:07:21.875Z,20.50
2023-02-14T02:09:58.103Z,16.97
2023-02-14T02:12:30.714Z,17.40
2023-02-14T02:15:02.669Z,18.17
2023-02-14T02:17:43.305Z,18.63
2023-02-14T02:20:38.002Z,17.87
2023-02-14T02:23:34.554Z,17.38
2023-02-14T02:26:41.310Z,18.33
2023-02-14T02:29:52.300Z,17.13
2023-02-14T02:32:54.286Z,18.33
2023-02-14T02:35:43.283Z,16.43
2023-02-14T02:38:26.356Z,17.50
2023-02-14T02:41:05.749Z,17.70
2023-02-14T02:43:46.084Z,18.43
2023-02-14T02:46:36.355Z,17.67
2023-02-14T02:49:35.966Z,17.70
2023-02-14T02:52:26.534Z,19.37
2023-02-14T02:55:01.708Z,18.13
2023-02-14T02:57:35.858Z,16.60
2023-02-14T03:00:08.778Z,18.73
2023-02-14T03:02:55.826Z,20.63
2023-02-14T03:05:26.369Z,20.00
2023-02-14T03:07:58.911Z,18.43
2023-02-14T03:10:32.870Z,20.53
2023-02-14T03:13:42.123Z,19.67
2023-02-14T03:16:37.144Z,17.30
2023-02-14T03:19:57.110Z,17.83
2023-02-14T03:22:43.749Z,19.27
2023-02-14T03:25:27.340Z,19.20
2023-02-14T03:28:02.332Z,19.60
2023-02-14T03:30:42.035Z,19.83
2023-02-14T03:33:21.243Z,18.50
2023-02-14T03:36:01.999Z,20.00
2023-02-14T03:38:39.679Z,17.47
2023-02-14T03:41:17.755Z,20.50
2023-02-14T03:43:52.202Z,18.77
2023-02-14T03:48:56.194Z,19.90
2023-02-14T03:51:27.379Z,18.03
2023-02-14T03:54:00.581Z,18.63
2023-02-14T03:56:38.892Z,20.80
2023-02-14T03:59:12.979Z,19.47
2023-02-14T04:01:50.081Z,21.13
2023-02-14T04:04:23.874Z,19.80
2023-02-14T04:06:54.299Z,20.35
2023-02-14T04:09:27.282Z,19.00
2023-02-14T04:11:59.942Z,21.07
2023-02-14T04:14:30.382Z,20.03
2023-02-14T04:17:13.187Z,21.90
2023-02-14T04:19:43.169Z,22.27
2023-02-14T04:22:13.463Z,22.90
2023-02-14T04:24:43.654Z,21.37
2023-02-14T04:27:16.271Z,20.63
2023-02-14T04:29:47.955Z,21.37
2023-02-14T04:32:20.696Z,22.23
2023-02-14T04:34:51.144Z,23.50
2023-02-14T04:37:22.715Z,23.87
2023-02-14T04:39:52.874Z,23.30
2023-02-14T04:42:25.429Z,24.77
2023-02-14T04:44:55.666Z,19.80
2023-02-14T04:47:25.926Z,24.93
2023-02-14T04:49:56.131Z,22.87
2023-02-14T04:52:26.097Z,19.67
2023-02-14T04:54:56.315Z,21.33
2023-02-14T04:57:28.747Z,22.97
2023-02-14T04:59:58.979Z,22.27
2023-02-14T05:02:29.221Z,21.53
2023-02-14T05:04:59.437Z,20.93
2023-02-14T05:07:29.641Z,21.70
2023-02-14T05:09:59.866Z,22.20
2023-02-14T05:12:32.448Z,24.43
2023-02-14T05:15:02.342Z,21.13
2023-02-14T05:17:32.654Z,20.73
2023-02-14T05:20:02.855Z,20.57
2023-02-14T05:22:33.169Z,20.53
2023-02-14T05:25:03.345Z,20.07
2023-02-14T05:27:35.867Z,22.07
2023-02-14T05:30:06.192Z,22.23
2023-02-14T05:32:36.495Z,23.10
2023-02-14T05:35:06.733Z,21.50
2023-02-14T05:37:37.021Z,22.43
2023-02-14T05:40:08.389Z,21.67
2023-02-14T05:42:41.204Z,21.37
2023-02-14T05:45:11.952Z,21.20
2023-02-14T05:47:42.448Z,19.93
2023-02-14T05:50:12.986Z,21.83
2023-02-14T05:52:43.296Z,21.07
2023-02-14T05:55:13.687Z,22.03
2023-02-14T05:57:46.238Z,22.13
2023-02-14T06:00:17.641Z,21.93
2023-02-14T06:02:47.912Z,20.80
2023-02-14T06:05:18.396Z,19.80
2023-02-14T06:07:50.609Z,19.50
2023-02-14T06:10:21.292Z,21.20
2023-02-14T06:12:54.920Z,17.13
2023-02-14T06:15:25.009Z,14.80
2023-02-14T06:17:55.893Z,20.13
2023-02-14T06:20:27.672Z,19.63
2023-02-14T06:22:58.081Z,19.13
2023-02-14T06:25:28.601Z,18.47
2023-02-14T06:28:04.014Z,18.97
2023-02-14T06:30:34.399Z,17.13
2023-02-14T06:33:04.685Z,16.47
2023-02-14T06:35:35.093Z,17.53
2023-02-14T06:38:05.351Z,16.20
2023-02-14T06:40:35.512Z,17.33
2023-02-14T06:43:08.253Z,19.00
2023-02-14T06:45:38.508Z,21.13
2023-02-14T06:48:08.917Z,20.23
2023-02-14T06:50:39.111Z,17.27
2023-02-14T06:53:09.385Z,18.70
2023-02-14T06:55:39.670Z,19.53
2023-02-14T06:58:12.170Z,19.87
2023-02-14T07:00:42.748Z,21.97
2023-02-14T07:03:12.960Z,21.87
2023-02-14T07:05:45.218Z,23.27
2023-02-14T07:08:16.119Z,18.70
2023-02-14T07:10:46.270Z,18.70
2023-02-14T07:13:18.832Z,17.57
2023-02-14T07:15:50.440Z,19.07
2023-02-14T07:18:20.781Z,18.83
2023-02-14T07:20:50.945Z,17.73
2023-02-14T07:23:21.155Z,18.03
2023-02-14T07:25:51.536Z,23.17
2023-02-14T07:28:24.229Z,20.63
2023-02-14T07:30:54.620Z,18.33
2023-02-14T07:33:24.930Z,16.30
2023-02-14T07:35:55.112Z,20.00
2023-02-14T07:38:25.325Z,20.90
2023-02-14T07:40:56.691Z,20.53
2023-02-14T07:43:29.654Z,19.50
2023-02-14T07:45:59.939Z,17.73
2023-02-14T07:48:32.495Z,18.80
2023-02-14T07:51:03.953Z,17.75
2023-02-14T07:53:34.135Z,18.13
2023-02-14T07:56:04.339Z,19.53
2023-02-14T07:58:36.951Z,15.73
2023-02-14T08:01:07.268Z,15.73
2023-02-14T08:03:37.638Z,17.40
2023-02-14T08:06:08.092Z,19.20
2023-02-14T08:08:38.384Z,18.60
2023-02-14T08:11:08.549Z,16.53
2023-02-14T08:13:41.237Z,16.70
2023-02-14T08:16:12.647Z,15.90
2023-02-14T08:18:45.420Z,17.50
2023-02-14T08:21:17.233Z,16.83
2023-02-14T08:23:47.670Z,17.20
2023-02-14T08:26:17.674Z,20.07
2023-02-14T08:28:50.201Z,15.23
2023-02-14T08:31:34.793Z,17.60
2023-02-14T08:34:06.077Z,15.33
2023-02-14T08:36:36.158Z,15.63
2023-02-14T08:39:07.022Z,15.40
2023-02-14T08:41:37.259Z,15.50
2023-02-14T08:44:09.725Z,16.80
2023-02-14T08:46:39.674Z,17.07
2023-02-14T08:49:09.694Z,17.90
2023-02-14T08:51:39.702Z,15.87
2023-02-14T08:54:09.776Z,18.27
2023-02-14T08:56:40.671Z,15.83
2023-02-14T08:59:13.160Z,14.63
2023-02-14T09:01:43.088Z,16.03
2023-02-14T09:04:13.221Z,16.13
2023-02-14T09:06:43.355Z,15.63
2023-02-14T09:09:13.435Z,14.50
2023-02-14T09:11:43.586Z,15.33
2023-02-14T09:14:16.180Z,14.90
2023-02-14T09:16:46.264Z,16.87
2023-02-14T09:19:16.273Z,19.53
2023-02-14T09:21:46.542Z,14.43
2023-02-14T09:24:16.484Z,18.50
2023-02-14T09:26:46.365Z,16.47
2023-02-14T09:29:18.872Z,15.80
2023-02-14T09:31:48.847Z,17.70
2023-02-14T09:34:18.878Z,16.53
2023-02-14T09:37:01.245Z,17.90
2023-02-14T09:39:31.269Z,19.20
2023-02-14T09:42:21.198Z,19.50
2023-02-14T09:44:57.485Z,17.57
2023-02-14T09:47:43.176Z,17.57
2023-02-14T09:50:20.606Z,20.37
2023-02-14T09:52:54.244Z,17.43
2023-02-14T09:55:24.455Z,17.40
2023-02-14T09:58:08.544Z,16.97
2023-02-14T10:00:48.433Z,15.93
2023-02-14T10:03:43.519Z,16.80
2023-02-14T10:06:26.994Z,17.20
2023-02-14T10:09:05.173Z,17.30
2023-02-14T10:11:35.509Z,16.23
2023-02-14T10:14:13.802Z,16.70
2023-02-14T10:16:49.992Z,15.37
2023-02-14T10:19:24.696Z,18.20
2023-02-14T10:21:58.124Z,16.60
2023-02-14T10:24:32.733Z,16.03
2023-02-14T10:27:11.331Z,14.87
2023-02-14T10:29:42.017Z,15.90
2023-02-14T10:32:18.045Z,15.73
2023-02-14T10:34:50.855Z,16.70
2023-02-14T10:37:30.488Z,16.53
2023-02-14T10:40:17.382Z,16.80
2023-02-14T10:42:58.762Z,16.43
2023-02-14T10:45:37.184Z,18.83
2023-02-14T10:48:18.952Z,16.43
2023-02-14T10:50:59.634Z,15.07
2023-02-14T10:53:41.366Z,19.17
2023-02-14T10:56:20.007Z,16.60
2023-02-14T10:58:53.885Z,17.07
2023-02-14T11:01:24.401Z,13.52
2023-02-14T11:04:04.217Z,14.80
2023-02-14T11:06:34.596Z,15.37
2023-02-14T11:09:04.511Z,13.97
2023-02-14T11:11:40.377Z,14.43
2023-02-14T11:14:26.759Z,15.00
2023-02-14T11:16:57.785Z,15.80
2023-02-14T11:19:34.110Z,13.73
2023-02-14T11:22:05.387Z,13.70
2023-02-14T11:24:38.268Z,15.63
2023-02-14T11:27:18.520Z,15.50
2023-02-14T11:29:53.122Z,14.87
2023-02-14T11:32:25.374Z,14.60
2023-02-14T11:35:02.822Z,13.45
2023-02-14T11:37:35.326Z,13.37
2023-02-14T11:40:06.183Z,14.40
2023-02-14T11:42:41.445Z,14.10
2023-02-14T11:45:30.618Z,14.30
2023-02-14T11:48:19.980Z,11.50
2023-02-14T11:51:04.969Z,12.88
2023-02-14T11:53:46.346Z,13.43
2023-02-14T11:56:17.644Z,12.23
2023-02-14T11:58:53.506Z,12.80
2023-02-14T12:01:27.501Z,13.47
2023-02-14T12:04:01.050Z,14.07
2023-02-14T12:06:36.636Z,12.48
2023-02-14T12:09:26.873Z,13.07
2023-02-14T12:12:00.710Z,12.57
2023-02-14T12:14:32.837Z,12.82
2023-02-14T12:17:10.065Z,13.32
2023-02-14T12:19:47.446Z,11.00
2023-02-14T12:22:23.164Z,12.27
2023-02-14T12:24:59.968Z,13.25
2023-02-14T12:27:35.370Z,12.43
2023-02-14T12:30:08.876Z,12.38
2023-02-14T12:32:38.939Z,13.07
2023-02-14T12:35:17.908Z,9.48
2023-02-14T12:38:04.676Z,11.50
2023-02-14T12:40:48.059Z,11.30
2023-02-14T12:43:53.859Z,11.63
2023-02-14T12:46:45.476Z,12.57
2023-02-14T12:49:29.042Z,11.77
2023-02-14T12:52:09.162Z,11.20
2023-02-14T12:54:57.261Z,10.57
2023-02-14T12:57:40.222Z,10.65
2023-02-14T13:00:23.243Z,12.02
2023-02-14T13:03:13.451Z,10.30
2023-02-14T13:06:01.879Z,10.43
2023-02-14T13:08:49.588Z,9.73
2023-02-14T13:11:35.341Z,10.27
2023-02-14T13:14:17.300Z,12.05
2023-02-14T13:16:53.260Z,10.40
2023-02-14T13:19:36.949Z,8.27
2023-02-14T13:22:09.536Z,7.30
2023-02-14T13:24:44.311Z,9.57
2023-02-14T13:27:23.062Z,8.43
2023-02-14T13:29:55.785Z,9.10
2023-02-14T13:32:31.609Z,8.15
2023-02-14T13:35:02.345Z,7.60
2023-02-14T13:37:33.478Z,7.70
2023-02-14T13:40:06.896Z,7.30
2023-02-14T13:42:58.190Z,8.47
2023-02-14T13:45:56.423Z,7.75
2023-02-14T13:48:28.584Z,8.77
2023-02-14T13:51:01.023Z,9.43
2023-02-14T13:53:43.419Z,8.50
2023-02-14T13:56:43.162Z,7.50
2023-02-14T13:59:29.145Z,7.10
2023-02-14T14:02:19.378Z,8.02
2023-02-14T14:04:49.288Z,6.47
2023-02-14T14:07:22.192Z,6.80
2023-02-14T14:10:03.284Z,7.18
2023-02-14T14:12:46.829Z,7.00
2023-02-14T14:15:23.581Z,7.28
2023-02-14T14:18:26.060Z,7.60
2023-02-14T14:20:56.354Z,6.82
2023-02-14T14:23:38.602Z,6.90
2023-02-14T14:26:39.738Z,7.50
2023-02-14T14:29:15.159Z,6.57
2023-02-14T14:31:51.331Z,7.00
2023-02-14T14:34:25.250Z,6.70
2023-02-14T14:37:05.475Z,7.25
2023-02-14T14:39:39.985Z,5.78
2023-02-14T14:42:12.566Z,8.85
2023-02-14T14:44:49.857Z,7.07
2023-02-14T14:47:25.858Z,7.95
2023-02-14T14:49:57.277Z,6.80
2023-02-14T14:52:37.937Z,6.10
2023-02-14T14:55:10.672Z,7.40
2023-02-14T14:57:41.538Z,6.90
2023-02-14T15:00:22.756Z,6.85
2023-02-14T15:03:07.839Z,7.20
2023-02-14T15:05:40.718Z,6.28
2023-02-14T15:08:18.557Z,7.93
2023-02-14T15:10:53.838Z,6.70
2023-02-14T15:13:41.616Z,7.47
2023-02-14T15:16:11.866Z,7.20
2023-02-14T15:18:45.243Z,7.85
2023-02-14T15:21:16.765Z,6.90
2023-02-14T15:23:48.118Z,7.60
2023-02-14T15:26:28.704Z,6.70
2023-02-14T15:29:00.530Z,6.15
2023-02-14T15:31:37.300Z,6.78
2023-02-14T15:34:10.703Z,7.53
2023-02-14T15:36:40.990Z,7.30
2023-02-14T15:39:13.618Z,7.57
2023-02-14T15:41:47.439Z,7.82
2023-02-14T15:44:27.964Z,6.18
2023-02-14T15:46:59.961Z,7.22
2023-02-14T15:49:36.109Z,8.43
2023-02-14T15:52:08.376Z,8.73
2023-02-14T15:54:41.964Z,7.82
2023-02-14T15:57:26.310Z,7.68
2023-02-14T15:59:56.854Z,9.10
2023-02-14T16:02:36.023Z,12.63
2023-02-14T16:05:18.046Z,16.85
2023-02-14T16:08:03.667Z,11.68
2023-02-14T16:10:35.637Z,15.68
2023-02-14T16:13:09.344Z,9.95
2023-02-14T16:15:42.567Z,10.45
2023-02-14T16:18:21.413Z,8.40
2023-02-14T16:20:53.902Z,8.35
2023-02-14T16:23:26.873Z,7.65
2023-02-14T16:25:58.092Z,8.10
2023-02-14T16:28:32.070Z,7.95
2023-02-14T16:31:05.948Z,8.30
2023-02-14T16:33:38.246Z,8.10
2023-02-14T16:36:18.516Z,7.88
2023-02-14T16:38:50.063Z,8.63
2023-02-14T16:41:22.209Z,9.15
2023-02-14T16:43:53.254Z,8.23
2023-02-14T16:46:25.632Z,8.52
2023-02-14T16:48:55.717Z,7.28
2023-02-14T16:51:30.955Z,8.25
2023-02-14T16:54:02.635Z,7.35
2023-02-14T16:56:39.376Z,7.18
2023-02-14T16:59:09.286Z,7.72
2023-02-14T17:01:39.492Z,6.15
2023-02-14T17:04:10.186Z,8.10
2023-02-14T17:06:48.223Z,7.93
2023-02-14T17:09:22.955Z,7.87
2023-02-14T17:11:55.468Z,7.90
2023-02-14T17:14:30.887Z,8.43
2023-02-14T17:17:01.628Z,7.87
2023-02-14T17:19:31.763Z,8.63
2023-02-14T17:22:04.555Z,9.90
2023-02-14T17:24:34.806Z,9.43
2023-02-14T17:27:04.886Z,8.77
2023-02-14T17:29:34.784Z,10.07
2023-02-14T17:32:04.904Z,9.43
2023-02-14T17:34:35.203Z,9.10
2023-02-14T17:37:08.004Z,8.70
2023-02-14T17:39:38.184Z,10.10
2023-02-14T17:42:11.688Z,12.70
2023-02-14T17:44:41.969Z,21.52
2023-02-14T17:47:11.934Z,17.83
2023-02-14T17:49:41.888Z,13.73
2023-02-14T17:52:14.412Z,13.33
2023-02-14T17:54:44.933Z,11.30
2023-02-14T17:57:15.467Z,9.73
2023-02-14T17:59:46.829Z,10.17
2023-02-14T18:02:16.828Z,9.33
2023-02-14T18:04:48.357Z,9.93
2023-02-14T18:07:20.933Z,9.47
2023-02-14T18:09:50.943Z,8.47
2023-02-14T18:12:20.914Z,10.07
2023-02-14T18:14:53.306Z,9.40
2023-02-14T18:17:23.224Z,10.17
2023-02-14T18:19:53.108Z,9.73
2023-02-14T18:22:25.598Z,9.70
2023-02-14T18:24:58.663Z,9.77
2023-02-14T18:27:28.876Z,10.73
2023-02-14T18:29:59.265Z,9.60
2023-02-14T18:32:29.232Z,9.20
2023-02-14T18:34:59.139Z,9.83
2023-02-14T18:37:31.712Z,8.37
2023-02-14T18:40:01.793Z,10.70
2023-02-14T18:42:31.752Z,8.83
2023-02-14T18:45:01.673Z,9.70
2023-02-14T18:47:31.864Z,10.10
2023-02-14T18:50:01.849Z,10.87
2023-02-14T18:52:34.456Z,11.23
2023-02-14T18:55:04.679Z,11.00
2023-02-14T18:57:36.601Z,10.40
2023-02-14T19:00:12.012Z,10.27
2023-02-14T19:02:42.246Z,11.50
2023-02-14T19:05:12.926Z,11.83
2023-02-14T19:07:46.229Z,10.00
2023-02-14T19:10:16.378Z,11.13
2023-02-14T19:12:46.840Z,12.83
2023-02-14T19:15:17.564Z,11.47
2023-02-14T19:17:47.672Z,11.77
2023-02-14T19:20:18.441Z,9.57
2023-02-14T19:22:51.071Z,12.53
2023-02-14T19:25:21.273Z,12.50
2023-02-14T19:27:51.741Z,10.87
2023-02-14T19:30:22.102Z,32.57
2023-02-14T19:32:52.031Z,13.03
2023-02-14T19:35:21.956Z,13.53
2023-02-14T19:37:56.718Z,11.13
2023-02-14T19:40:26.689Z,12.00
2023-02-14T19:42:56.610Z,11.63
2023-02-14T19:45:27.416Z,11.03
2023-02-14T19:47:59.300Z,10.20
2023-02-14T19:50:30.841Z,13.77
2023-02-14T19:53:04.852Z,10.97
2023-02-14T19:55:34.904Z,10.67
2023-02-14T19:58:04.894Z,10.57
2023-02-14T20:00:37.075Z,12.67
2023-02-14T20:03:07.291Z,13.17
2023-02-14T20:05:40.494Z,10.77
2023-02-14T20:08:13.088Z,11.07
2023-02-14T20:10:43.233Z,11.27
2023-02-14T20:13:13.473Z,10.83
2023-02-14T20:15:45.273Z,10.20
2023-02-14T20:18:15.212Z,10.13
2023-02-14T20:21:02.046Z,11.43
2023-02-14T20:23:36.042Z,10.47
2023-02-14T20:26:06.363Z,11.30
2023-02-14T20:28:36.687Z,9.97
2023-02-14T20:31:09.503Z,10.97
2023-02-14T20:33:39.885Z,9.33
2023-02-14T20:36:11.156Z,11.23
2023-02-14T20:38:43.931Z,10.47
2023-02-14T20:41:16.474Z,9.60
2023-02-14T20:43:46.733Z,9.87
2023-02-14T20:46:17.135Z,9.00
2023-02-14T20:48:47.379Z,8.30
2023-02-14T20:51:18.424Z,8.47
2023-02-14T20:53:51.525Z,10.13
2023-02-14T20:56:22.738Z,11.63
2023-02-14T20:58:53.375Z,9.93
2023-02-14T21:01:25.606Z,10.50
2023-02-14T21:03:56.481Z,9.97
2023-02-14T21:06:29.008Z,11.17
2023-02-14T21:09:02.198Z,8.03
2023-02-14T21:11:32.718Z,9.10
2023-02-14T21:14:03.823Z,10.17
2023-02-14T21:16:34.165Z,9.47
2023-02-14T21:19:04.823Z,10.10
2023-02-14T21:21:36.312Z,8.70
2023-02-14T21:24:11.081Z,12.50
2023-02-14T21:26:41.488Z,9.43
2023-02-14T21:29:11.863Z,12.87
2023-02-14T21:31:43.112Z,10.80
2023-02-14T21:34:13.404Z,10.80
2023-02-14T21:36:43.649Z,8.97
2023-02-14T21:39:16.701Z,11.63
2023-02-14T21:41:46.851Z,10.07
2023-02-14T21:44:41.162Z,9.03
2023-02-14T21:47:11.374Z,9.80
2023-02-14T21:49:54.034Z,11.33
2023-02-14T21:52:24.329Z,9.03
2023-02-14T21:54:57.311Z,9.33
2023-02-14T21:57:27.632Z,10.30
2023-02-14T21:59:57.851Z,10.10
2023-02-14T22:02:28.189Z,12.30
2023-02-14T22:04:58.474Z,10.30
2023-02-14T22:07:30.868Z,8.53
2023-02-14T22:10:03.730Z,10.87
2023-02-14T22:12:33.973Z,8.97
2023-02-14T22:15:04.381Z,7.90
2023-02-14T22:17:35.720Z,8.50
2023-02-14T22:20:06.112Z,10.47
2023-02-14T22:22:36.596Z,8.07
2023-02-14T22:25:09.674Z,8.60
2023-02-14T22:27:41.772Z,7.97
2023-02-14T22:30:12.456Z,8.00
2023-02-14T22:32:42.716Z,8.00
2023-02-14T22:35:12.898Z,6.83
2023-02-14T22:37:43.114Z,7.60
2023-02-14T22:40:16.115Z,7.53
2023-02-14T22:42:46.474Z,6.77
2023-02-14T22:45:16.701Z,8.93
2023-02-14T22:47:46.894Z,9.70
2023-02-14T22:50:17.156Z,7.77
2023-02-14T22:52:47.410Z,7.50
2023-02-14T22:55:20.162Z,8.23
2023-02-14T22:57:50.372Z,8.43
2023-02-14T23:00:20.713Z,8.23
2023-02-14T23:02:50.981Z,9.23
2023-02-14T23:05:21.292Z,9.67
2023-02-14T23:07:51.464Z,8.63
2023-02-14T23:10:24.365Z,7.13
2023-02-14T23:13:06.997Z,8.67
2023-02-14T23:15:49.669Z,7.17
2023-02-14T23:18:32.321Z,10.23
2023-02-14T23:21:14.705Z,8.83
2023-02-14T23:23:44.941Z,9.50
2023-02-14T23:26:22.109Z,10.70
2023-02-14T23:28:52.366Z,10.07
2023-02-14T23:31:22.694Z,10.60
2023-02-14T23:33:53.897Z,9.97
2023-02-14T23:36:24.169Z,9.90
2023-02-14T23:38:54.339Z,9.27
2023-02-14T23:41:39.601Z,10.90
2023-02-14T23:44:10.136Z,12.23
2023-02-14T23:46:40.361Z,8.63
2023-02-14T23:49:10.521Z,9.17
2023-02-14T23:51:40.909Z,10.37
2023-02-14T23:54:11.452Z,9.63
2023-02-14T23:56:45.376Z,9.30
2023-02-14T23:59:16.043Z,8.75
